Terminal Aerodrome Forecast
Issued by NWS Sterling, VA

Current Version | Previous Version | Graphics & Text | Print | Product List | Glossary On
Versions: 1 2 3 4 5 6 7 8 9 10 11 12 13 14 15 16 17 18
000
FTUS41 KLWX 302324
TAFMRB
TAF
KMRB 302324Z 3100/3124 20005KT P6SM VCTS BKN060CB
     FM310400 20006KT P6SM BKN060
     FM310700 19004KT 3SM BR BKN060
     FM311600 23004KT P6SM BKN050
     FM312100 17007KT P6SM BKN050=

USA.gov is the U.S. government's official web portal to all federal, state and local government web resources and services.